Time;durP1;ratioP1;P1;durP2;ratioP2;P2;SDS_P1;SDS_P2;PMS_P1;PMS_P2;Temp;Humidity;BMP_temperature;BMP_pressure;BME280_temperature;BME280_humidity;BME280_pressure;Samples;Min_cycle;Max_cycle;Signal;HPM_P1;HPM_P2
2022/03/15 00:02:05;;;;;;;8.48;3.95;;;;;;;7.48;78.84;102798.13;10420891;28;20037;-76
2022/03/15 00:07:13;;;;;;;8.80;3.30;;;;;;;7.48;78.06;102798.97;10421075;28;20532;-76
2022/03/15 00:12:14;;;;;;;7.57;3.75;;;;;;;7.34;76.71;102793.88;10421755;28;20056;-77
2022/03/15 00:17:14;;;;;;;7.55;3.30;;;;;;;7.21;76.82;102789.56;10420185;28;20032;-76
2022/03/15 00:22:15;;;;;;;4.10;3.17;;;;;;;7.12;76.98;102779.56;10402134;28;20116;-76
2022/03/15 00:27:15;;;;;;;5.68;3.50;;;;;;;7.04;76.66;102783.88;10418338;28;20060;-76
2022/03/15 00:32:19;;;;;;;7.00;3.30;;;;;;;6.94;76.90;102781.09;10418448;28;20070;-76
2022/03/15 00:37:20;;;;;;;13.27;3.67;;;;;;;6.75;76.38;102782.59;10417790;28;20128;-76
2022/03/15 00:42:20;;;;;;;6.63;3.13;;;;;;;6.72;77.60;102780.16;10421534;28;20037;-76
2022/03/15 00:47:20;;;;;;;10.73;4.80;;;;;;;6.70;79.27;102774.06;10418695;28;20400;-76
2022/03/15 00:52:21;;;;;;;10.13;3.30;;;;;;;6.63;78.17;102769.28;10417800;28;20081;-76
2022/03/15 00:57:21;;;;;;;5.80;3.60;;;;;;;6.57;78.60;102773.34;10419856;28;20087;-76
2022/03/15 01:02:22;;;;;;;7.20;3.97;;;;;;;6.50;79.57;102775.66;10418788;28;20466;-76
2022/03/15 01:07:22;;;;;;;10.18;4.15;;;;;;;6.49;81.47;102771.28;10418736;28;20052;-76
2022/03/15 01:12:22;;;;;;;9.85;5.40;;;;;;;6.55;81.96;102764.56;10423490;28;20037;-77
2022/03/15 01:17:23;;;;;;;12.45;5.45;;;;;;;6.57;81.38;102761.72;10422205;28;20041;-76
2022/03/15 01:22:24;;;;;;;14.43;5.15;;;;;;;6.54;82.37;102752.09;10418676;28;20044;-76
2022/03/15 01:27:24;;;;;;;17.00;5.72;;;;;;;6.52;80.70;102740.56;10421207;28;20033;-76
2022/03/15 01:32:25;;;;;;;6.95;4.30;;;;;;;6.47;80.54;102734.69;10426904;28;20508;-76
2022/03/15 01:37:25;;;;;;;12.25;5.28;;;;;;;6.50;81.16;102738.00;10416673;28;20141;-76
2022/03/15 01:42:26;;;;;;;7.30;4.55;;;;;;;6.54;81.65;102735.94;10416909;28;20080;-76
2022/03/15 01:47:26;;;;;;;10.80;5.18;;;;;;;6.58;81.54;102723.06;10417602;28;20120;-76
2022/03/15 01:52:27;;;;;;;8.80;4.47;;;;;;;6.67;81.97;102723.16;10418104;28;20033;-76
2022/03/15 01:57:27;;;;;;;16.60;4.93;;;;;;;6.75;83.30;102720.66;10400339;28;20029;-76
2022/03/15 02:02:28;;;;;;;5.05;4.45;;;;;;;6.86;82.75;102716.22;10420532;28;20124;-76
2022/03/15 02:07:28;;;;;;;12.00;5.75;;;;;;;6.92;82.58;102721.09;10418762;28;20378;-76
2022/03/15 02:12:29;;;;;;;11.77;6.57;;;;;;;6.92;81.90;102710.31;10404450;28;20029;-76
2022/03/15 02:17:30;;;;;;;9.55;5.95;;;;;;;6.89;82.50;102716.84;10418631;28;20461;-76
2022/03/15 02:22:30;;;;;;;14.77;6.10;;;;;;;6.89;82.10;102699.81;10385381;28;20034;-76
2022/03/15 02:27:30;;;;;;;18.80;7.15;;;;;;;6.83;82.58;102700.31;10424595;28;20037;-76
2022/03/15 02:32:31;;;;;;;13.32;6.72;;;;;;;6.79;81.70;102696.19;10426481;28;20041;-76
2022/03/15 02:37:31;;;;;;;13.85;6.05;;;;;;;6.75;81.87;102693.75;10427361;28;20065;-76
2022/03/15 02:42:32;;;;;;;17.33;6.93;;;;;;;6.77;82.64;102687.41;10428523;28;20069;-76
2022/03/15 02:47:33;;;;;;;10.32;6.80;;;;;;;6.73;82.80;102674.19;10425152;28;20033;-76
2022/03/15 02:52:34;;;;;;;10.80;6.85;;;;;;;6.66;81.36;102675.66;10425813;28;20037;-76
2022/03/15 02:57:34;;;;;;;17.92;6.35;;;;;;;6.55;81.87;102669.50;10408138;28;20033;-76
2022/03/15 03:02:35;;;;;;;6.75;5.72;;;;;;;6.49;82.38;102682.47;10424356;28;20037;-76
2022/03/15 03:07:36;;;;;;;13.43;7.78;;;;;;;6.53;82.08;102681.22;10424958;28;20029;-76
2022/03/15 03:12:37;;;;;;;22.70;8.32;;;;;;;6.59;81.84;102679.00;10408737;28;20492;-76
2022/03/15 03:17:41;;;;;;;13.70;8.30;;;;;;;6.57;82.40;102672.88;10422925;28;20038;-76
2022/03/15 03:22:42;;;;;;;16.25;9.48;;;;;;;6.64;85.41;102671.41;10423257;28;20041;-76
2022/03/15 03:27:42;;;;;;;14.55;7.13;;;;;;;6.70;86.27;102674.44;10422762;28;20061;-76
2022/03/15 03:32:43;;;;;;;24.25;9.20;;;;;;;6.80;86.62;102671.84;10394659;28;20034;-77
2022/03/15 03:37:43;;;;;;;12.80;9.13;;;;;;;6.81;88.24;102662.78;10431667;28;20049;-76
2022/03/15 03:42:44;;;;;;;17.27;9.82;;;;;;;6.84;87.81;102650.88;10416223;28;20461;-76
2022/03/15 03:47:44;;;;;;;14.77;8.90;;;;;;;6.88;87.66;102650.47;10422979;28;20045;-76
2022/03/15 03:52:44;;;;;;;17.88;9.68;;;;;;;6.91;86.79;102650.22;10404829;28;20052;-76
2022/03/15 03:57:45;;;;;;;16.95;8.80;;;;;;;6.96;86.11;102653.41;10421163;28;20112;-76
2022/03/15 04:02:45;;;;;;;14.43;10.10;;;;;;;6.99;86.10;102658.53;10420460;28;20440;-76
2022/03/15 04:07:46;;;;;;;17.33;8.77;;;;;;;6.99;86.00;102660.38;10423879;28;20120;-76
2022/03/15 04:12:47;;;;;;;13.57;8.32;;;;;;;6.99;86.08;102652.28;10424326;28;20060;-76
2022/03/15 04:17:47;;;;;;;17.98;9.45;;;;;;;7.00;85.50;102653.97;10422003;28;20373;-76
2022/03/15 04:22:48;;;;;;;28.90;11.70;;;;;;;7.01;86.12;102642.22;10419743;28;20044;-76
2022/03/15 04:27:48;;;;;;;20.05;10.32;;;;;;;7.06;86.69;102648.06;10418923;28;20080;-76
2022/03/15 04:32:49;;;;;;;17.17;9.50;;;;;;;7.06;86.80;102645.38;10403681;28;20112;-76
2022/03/15 04:37:51;;;;;;;18.33;10.25;;;;;;;7.04;86.63;102643.78;10386369;28;20049;-76
2022/03/15 04:42:54;;;;;;;29.25;11.50;;;;;;;7.07;86.52;102638.16;10421508;28;20034;-76
2022/03/15 04:47:54;;;;;;;21.70;11.65;;;;;;;7.12;86.11;102635.91;10437210;28;20034;-76
2022/03/15 04:52:55;;;;;;;21.42;9.70;;;;;;;7.13;85.65;102633.09;10420992;28;20065;-76
2022/03/15 04:57:55;;;;;;;16.83;11.25;;;;;;;7.10;86.39;102625.25;10403805;28;20025;-76
2022/03/15 05:02:56;;;;;;;22.50;10.68;;;;;;;7.13;89.40;102611.53;10421919;28;20061;-76
2022/03/15 05:07:56;;;;;;;18.70;11.25;;;;;;;7.21;87.43;102608.16;10421492;28;20068;-76
2022/03/15 05:12:56;;;;;;;16.23;10.48;;;;;;;7.21;86.47;102606.34;10420359;28;20041;-76
2022/03/15 05:17:57;;;;;;;21.65;10.43;;;;;;;7.12;85.84;102596.38;10418716;28;20030;-76
2022/03/15 05:22:57;;;;;;;14.30;10.30;;;;;;;7.03;87.97;102596.31;10417418;28;20037;-76
2022/03/15 05:27:58;;;;;;;17.67;10.88;;;;;;;7.01;88.74;102592.88;10415975;28;20351;-76
2022/03/15 05:32:58;;;;;;;15.55;10.75;;;;;;;7.01;88.84;102591.03;10417776;28;20109;-76
2022/03/15 05:37:58;;;;;;;12.50;10.25;;;;;;;6.99;87.06;102583.09;10417338;28;20076;-75
2022/03/15 05:42:59;;;;;;;23.90;11.80;;;;;;;6.95;87.61;102588.88;10432822;28;20037;-77
2022/03/15 05:47:59;;;;;;;20.77;11.30;;;;;;;6.84;91.50;102578.19;10399387;28;20029;-75
2022/03/15 05:53:05;;;;;;;16.38;9.77;;;;;;;6.84;93.75;102580.88;10419967;28;20049;-76
2022/03/15 05:58:06;;;;;;;24.45;13.98;;;;;;;6.91;91.80;102573.97;10386818;28;20519;-75
2022/03/15 06:03:07;;;;;;;21.85;12.00;;;;;;;6.94;89.96;102571.00;10418566;28;20044;-76
2022/03/15 06:08:08;;;;;;;26.90;11.70;;;;;;;6.95;88.56;102560.09;10416935;28;20057;-80
2022/03/15 06:13:09;;;;;;;21.98;11.75;;;;;;;6.93;89.04;102566.63;10427604;28;20041;-80
2022/03/15 06:18:09;;;;;;;23.85;12.68;;;;;;;6.92;90.29;102571.16;10417593;28;20090;-77
2022/03/15 06:23:09;;;;;;;21.08;10.43;;;;;;;6.94;89.30;102568.31;10416388;28;20486;-76
2022/03/15 06:28:10;;;;;;;19.35;11.82;;;;;;;6.94;88.65;102566.47;10381874;28;20040;-76
2022/03/15 06:33:10;;;;;;;31.00;12.55;;;;;;;6.99;90.97;102574.19;10415223;28;20040;-76
2022/03/15 06:38:11;;;;;;;24.40;13.30;;;;;;;7.09;91.88;102560.75;10414530;28;20081;-76
2022/03/15 06:43:13;;;;;;;30.30;12.98;;;;;;;7.12;89.97;102565.88;10417933;28;20134;-77
2022/03/15 06:48:15;;;;;;;16.02;11.38;;;;;;;7.16;89.46;102557.38;10404947;28;20030;-77
2022/03/15 06:53:15;;;;;;;25.88;13.73;;;;;;;7.19;88.81;102558.97;10383947;28;20037;-76
2022/03/15 06:58:17;;;;;;;23.90;13.55;;;;;;;7.23;88.58;102555.00;10431462;28;20069;-76
2022/03/15 07:03:17;;;;;;;22.95;13.05;;;;;;;7.26;92.91;102559.28;10414607;28;20487;-76
2022/03/15 07:08:18;;;;;;;21.60;15.07;;;;;;;7.30;95.04;102558.00;10415899;28;20116;-76
2022/03/15 07:13:19;;;;;;;19.95;13.10;;;;;;;7.29;96.41;102550.91;10422727;28;20484;-77
2022/03/15 07:18:20;;;;;;;19.27;14.35;;;;;;;7.51;94.24;102548.03;10422166;28;20037;-76
2022/03/15 07:23:21;;;;;;;20.40;14.18;;;;;;;7.60;93.82;102540.97;10422065;28;20037;-76
2022/03/15 07:28:21;;;;;;;24.13;15.52;;;;;;;7.75;92.91;102538.69;10426723;28;20053;-77
2022/03/15 07:33:22;;;;;;;20.08;15.05;;;;;;;7.82;92.93;102543.44;10434583;28;20041;-76
2022/03/15 07:38:22;;;;;;;28.60;15.57;;;;;;;7.86;93.67;102547.53;10434257;28;20145;-76
2022/03/15 07:43:23;;;;;;;26.75;15.27;;;;;;;7.93;92.74;102545.97;10422556;28;20080;-76
2022/03/15 07:48:23;;;;;;;27.50;16.23;;;;;;;7.99;92.86;102555.38;10420115;28;20033;-76
2022/03/15 07:53:24;;;;;;;23.52;16.23;;;;;;;8.10;92.43;102538.19;10420150;28;20048;-76
2022/03/15 07:58:24;;;;;;;19.60;13.52;;;;;;;8.15;92.33;102534.06;10420051;28;20522;-77
2022/03/15 08:03:24;;;;;;;22.02;14.90;;;;;;;8.28;91.88;102532.94;10385953;28;20037;-76
2022/03/15 08:08:25;;;;;;;25.13;16.25;;;;;;;8.35;91.35;102544.88;10421205;28;20120;-77
2022/03/15 08:13:25;;;;;;;29.35;17.30;;;;;;;8.49;90.55;102552.59;10408417;28;20461;-76
2022/03/15 08:18:26;;;;;;;21.67;14.77;;;;;;;8.58;89.00;102548.16;10423874;28;20061;-76
2022/03/15 08:23:27;;;;;;;19.52;14.38;;;;;;;8.80;88.05;102547.81;10421073;28;20041;-77
2022/03/15 08:28:28;;;;;;;20.17;14.30;;;;;;;9.01;87.12;102542.22;10401879;28;20033;-77
2022/03/15 08:33:28;;;;;;;27.00;15.32;;;;;;;9.22;86.72;102544.75;10402882;28;20100;-77
2022/03/15 08:38:29;;;;;;;19.80;14.18;;;;;;;9.46;85.87;102546.88;10420679;28;20140;-76
2022/03/15 08:43:30;;;;;;;17.85;12.98;;;;;;;9.71;84.32;102539.06;10421086;28;20049;-77
2022/03/15 08:48:31;;;;;;;22.08;14.23;;;;;;;10.00;82.87;102534.31;10420162;28;20034;-77
2022/03/15 08:53:34;;;;;;;20.45;13.77;;;;;;;10.26;81.30;102539.00;10417777;28;20037;-77
2022/03/15 08:58:35;;;;;;;20.10;12.82;;;;;;;10.54;79.34;102533.47;10400795;28;20175;-77
2022/03/15 09:03:35;;;;;;;32.63;13.85;;;;;;;11.28;77.85;102535.63;10416228;28;20147;-76
2022/03/15 09:08:36;;;;;;;24.15;12.80;;;;;;;12.73;73.21;102540.72;10417574;28;20385;-77
2022/03/15 09:13:37;;;;;;;11.10;9.85;;;;;;;13.25;71.07;102532.13;10421767;28;20061;-77
2022/03/15 09:18:38;;;;;;;29.95;12.38;;;;;;;12.71;67.75;102526.44;10416520;28;20041;-77
2022/03/15 09:23:39;;;;;;;31.30;13.98;;;;;;;12.76;71.56;102528.63;10417496;28;20037;-77
2022/03/15 09:28:41;;;;;;;17.50;12.85;;;;;;;13.20;70.96;102517.31;10427017;28;20029;-77
2022/03/15 09:33:42;;;;;;;20.10;10.60;;;;;;;12.60;69.14;102515.91;10427724;28;20033;-77
2022/03/15 09:38:43;;;;;;;12.02;10.30;;;;;;;12.59;71.09;102508.78;10418078;28;20053;-77
2022/03/15 09:43:45;;;;;;;32.42;11.23;;;;;;;12.73;70.18;102493.63;10415948;28;20041;-77
2022/03/15 09:48:45;;;;;;;19.67;11.38;;;;;;;13.03;69.67;102483.88;10415791;28;20032;-77
2022/03/15 09:53:46;;;;;;;15.73;11.23;;;;;;;14.53;63.57;102473.63;10415731;28;20117;-77
2022/03/15 09:58:47;;;;;;;17.23;9.20;;;;;;;15.45;59.99;102467.78;10415850;28;20116;-77
2022/03/15 10:03:48;;;;;;;16.00;10.57;;;;;;;15.85;58.08;102454.56;10416534;28;20041;-77
2022/03/15 10:08:48;;;;;;;31.98;9.63;;;;;;;16.46;55.38;102461.25;10400091;28;20064;-77
2022/03/15 10:13:49;;;;;;;12.73;8.73;;;;;;;16.98;54.89;102447.31;10383602;28;20057;-77
2022/03/15 10:18:54;;;;;;;15.23;9.57;;;;;;;17.50;51.30;102440.34;10414961;28;20034;-77
2022/03/15 10:23:55;;;;;;;13.82;8.25;;;;;;;17.91;48.27;102436.69;10416731;28;20033;-77
2022/03/15 10:28:56;;;;;;;6.50;5.97;;;;;;;18.42;49.57;102428.66;10418805;28;20029;-78
2022/03/15 10:34:02;;;;;;;9.20;6.28;;;;;;;18.35;47.00;102420.44;10402323;28;20026;-78
2022/03/15 10:39:02;;;;;;;10.27;5.57;;;;;;;18.51;45.98;102419.16;10420487;28;20045;-78
2022/03/15 10:44:03;;;;;;;11.48;6.32;;;;;;;18.80;43.95;102406.06;10399077;28;20041;-78
2022/03/15 10:49:04;;;;;;;11.55;6.15;;;;;;;18.78;44.71;102398.00;10422028;28;20099;-78
2022/03/15 10:54:05;;;;;;;6.65;4.78;;;;;;;19.15;46.16;102386.50;10423496;28;20134;-78
2022/03/15 10:59:05;;;;;;;4.97;4.45;;;;;;;18.83;42.80;102383.66;10422082;28;20111;-78
2022/03/15 11:04:07;;;;;;;9.45;5.55;;;;;;;19.47;46.53;102376.38;10422651;28;20129;-78
2022/03/15 11:09:21;;;;;;;4.03;3.58;;;;;;;19.42;39.87;102360.53;10408887;28;20033;-78
2022/03/15 11:14:45;;;;;;;6.32;3.67;;;;;;;19.31;39.03;102364.00;10423381;28;20377;-78
2022/03/15 11:19:49;;;;;;;10.27;5.55;;;;;;;18.91;41.08;102357.88;10422418;28;20454;-78
2022/03/15 11:25:08;;;;;;;5.28;4.78;;;;;;;18.86;39.82;102353.03;10425789;28;20046;-78
2022/03/15 11:30:16;;;;;;;7.50;5.53;;;;;;;18.30;44.12;102350.84;10427669;28;20033;-79
2022/03/15 11:35:22;;;;;;;5.80;4.43;;;;;;;18.15;42.10;102345.56;10410892;28;20113;-78
2022/03/15 11:40:22;;;;;;;4.40;3.53;;;;;;;18.52;40.50;102344.03;10420420;28;20057;-78
2022/03/15 11:45:33;;;;;;;4.65;3.78;;;;;;;18.51;40.68;102331.38;10421457;28;20045;-78
2022/03/15 11:51:13;;;;;;;3.47;3.17;;;;;;;18.77;39.32;102319.50;10405016;28;20025;-78
2022/03/15 11:56:34;;;;;;;4.05;3.17;;;;;;;18.81;39.61;102325.38;10422044;28;20449;-79
2022/03/15 12:01:48;;;;;;;7.30;4.32;;;;;;;18.75;39.72;102309.78;10420616;28;20104;-78
2022/03/15 12:06:54;;;;;;;7.55;3.45;;;;;;;18.82;37.54;102305.09;10413103;28;20033;-78
2022/03/15 12:12:05;;;;;;;5.85;3.80;;;;;;;19.17;38.86;102296.47;10407122;28;20488;-78
2022/03/15 12:17:07;;;;;;;9.75;4.25;;;;;;;19.15;37.18;102299.47;10422977;28;20029;-78
2022/03/15 12:22:09;;;;;;;3.97;3.20;;;;;;;18.93;39.17;102295.38;10407695;28;20492;-79
2022/03/15 12:27:14;;;;;;;4.40;3.83;;;;;;;19.10;40.30;102282.78;10387914;28;20030;-78
2022/03/15 12:32:18;;;;;;;3.40;3.10;;;;;;;18.93;37.91;102284.38;10420210;28;20041;-79
2022/03/15 12:37:37;;;;;;;5.78;4.65;;;;;;;18.97;40.77;102282.88;10425760;28;20055;-79
2022/03/15 12:42:38;;;;;;;10.50;5.32;;;;;;;18.75;42.83;102272.22;10404491;28;20045;-79
2022/03/15 12:47:40;;;;;;;9.52;4.90;;;;;;;17.57;42.38;102274.97;10420167;28;20488;-79
2022/03/15 12:52:45;;;;;;;16.83;5.53;;;;;;;18.06;42.34;102279.19;10422702;28;20124;-80
2022/03/15 12:57:52;;;;;;;7.13;4.65;;;;;;;18.24;41.99;102288.63;10408598;28;20030;-79
2022/03/15 13:02:54;;;;;;;5.07;3.78;;;;;;;17.20;42.69;102290.09;10398201;28;20053;-79
2022/03/15 13:08:02;;;;;;;5.05;4.00;;;;;;;17.16;45.49;102286.06;10393080;28;20041;-79
2022/03/15 13:13:05;;;;;;;7.88;4.05;;;;;;;17.09;44.98;102288.81;10405376;28;20033;-79
2022/03/15 13:18:06;;;;;;;4.93;3.45;;;;;;;16.44;46.05;102290.22;10417816;28;20038;-79
2022/03/15 13:23:08;;;;;;;4.47;3.90;;;;;;;16.51;47.51;102286.47;10417638;28;20040;-79
2022/03/15 13:28:22;;;;;;;8.35;4.20;;;;;;;16.49;48.44;102293.19;10418654;28;20029;-79
2022/03/15 13:33:56;;;;;;;;;;;;;;;;;;;;;
2022/03/15 13:39:04;;;;;;;6.47;5.55;;;;;;;16.93;51.03;102291.91;10415708;28;20493;-79
2022/03/15 13:44:06;;;;;;;8.75;5.13;;;;;;;17.17;51.18;102276.84;10416729;28;20108;-79
2022/03/15 13:49:17;;;;;;;5.35;4.93;;;;;;;17.97;49.68;102252.22;10399165;28;20060;-79
2022/03/15 13:54:19;;;;;;;8.68;4.97;;;;;;;18.71;50.29;102248.97;10415241;28;20477;-80
2022/03/15 13:59:25;;;;;;;4.50;4.10;;;;;;;18.49;49.23;102233.91;10385460;28;20112;-80
2022/03/15 14:04:27;;;;;;;4.38;3.97;;;;;;;18.09;47.67;102234.03;10400103;28;20044;-79
2022/03/15 14:09:29;;;;;;;4.05;3.72;;;;;;;17.51;48.32;102226.50;10398846;28;20032;-79
2022/03/15 14:14:53;;;;;;;4.07;3.78;;;;;;;17.56;49.52;102231.34;10415889;28;20496;-79
2022/03/15 14:19:58;;;;;;;4.03;3.28;;;;;;;18.15;47.66;102229.59;10416106;28;20033;-79
2022/03/15 14:25:02;;;;;;;6.00;3.95;;;;;;;16.87;49.17;102235.28;10425955;28;20413;-79
2022/03/15 14:30:12;;;;;;;5.53;4.72;;;;;;;15.95;52.15;102233.78;10429706;28;20501;-79
2022/03/15 14:35:24;;;;;;;7.80;4.28;;;;;;;15.66;53.95;102230.19;10429400;28;20127;-79
2022/03/15 14:40:29;;;;;;;6.15;3.50;;;;;;;15.25;54.63;102224.63;10405556;28;20050;-79
2022/03/15 14:45:33;;;;;;;10.77;4.30;;;;;;;14.84;55.21;102223.41;10424854;28;20057;-78
2022/03/15 14:50:34;;;;;;;5.35;3.95;;;;;;;14.54;55.84;102230.81;10429294;28;20025;-79
2022/03/15 14:55:36;;;;;;;4.38;3.45;;;;;;;14.41;55.95;102222.44;10435263;28;20064;-78
2022/03/15 15:00:40;;;;;;;7.32;4.75;;;;;;;14.33;56.24;102225.28;10428758;28;20052;-78
2022/03/15 15:05:42;;;;;;;9.93;5.50;;;;;;;14.30;56.29;102220.22;10412622;28;20036;-79
2022/03/15 15:10:43;;;;;;;7.15;5.78;;;;;;;14.38;56.42;102220.09;10428965;28;20516;-79
2022/03/15 15:15:46;;;;;;;6.32;5.43;;;;;;;14.48;56.76;102217.91;10434574;28;20033;-79
2022/03/15 15:20:53;;;;;;;7.03;4.47;;;;;;;14.59;56.31;102208.44;10435543;28;20032;-79
2022/03/15 15:25:54;;;;;;;5.70;4.28;;;;;;;14.66;56.94;102217.53;10424350;28;20041;-79
2022/03/15 15:30:55;;;;;;;11.57;5.70;;;;;;;14.69;57.27;102213.56;10424457;28;20037;-79
2022/03/15 15:35:56;;;;;;;11.70;5.93;;;;;;;14.61;57.38;102212.66;10424889;28;20042;-79
2022/03/15 15:40:57;;;;;;;5.97;5.00;;;;;;;14.54;57.45;102210.88;10408566;28;20080;-78
2022/03/15 15:45:57;;;;;;;8.52;5.30;;;;;;;14.50;57.14;102204.94;10425519;28;20025;-79
2022/03/15 15:50:58;;;;;;;6.03;5.13;;;;;;;14.24;58.34;102215.53;10425555;28;20033;-78
2022/03/15 15:55:59;;;;;;;7.72;5.97;;;;;;;14.19;58.41;102208.72;10425904;28;20033;-79
2022/03/15 16:01:08;;;;;;;4.53;4.20;;;;;;;14.15;58.38;102217.50;10421763;28;20560;-79
2022/03/15 16:06:09;;;;;;;5.97;5.47;;;;;;;14.09;58.74;102218.25;10419510;28;20095;-79
2022/03/15 16:11:10;;;;;;;7.40;5.45;;;;;;;14.13;58.26;102222.28;10419471;28;20042;-79
2022/03/15 16:16:18;;;;;;;7.20;4.85;;;;;;;13.94;59.21;102210.94;10401750;28;20051;-79
2022/03/15 16:21:21;;;;;;;10.15;5.07;;;;;;;13.83;59.32;102213.28;10402617;28;20045;-78
2022/03/15 16:26:22;;;;;;;9.63;5.68;;;;;;;13.79;59.17;102225.56;10406831;28;20030;-79
2022/03/15 16:31:25;;;;;;;8.40;5.50;;;;;;;13.66;60.50;102218.06;10419373;28;20040;-79
2022/03/15 16:36:28;;;;;;;10.15;5.72;;;;;;;13.53;60.25;102218.69;10402902;28;20132;-79
2022/03/15 16:41:32;;;;;;;15.10;7.03;;;;;;;13.60;59.96;102216.06;10402144;28;20076;-79
2022/03/15 16:46:33;;;;;;;12.88;6.05;;;;;;;13.56;59.59;102215.59;10419135;28;20091;-79
2022/03/15 16:51:33;;;;;;;7.85;6.20;;;;;;;13.51;59.83;102218.00;10401708;28;20477;-78
2022/03/15 16:56:36;;;;;;;7.80;5.95;;;;;;;13.44;60.00;102219.78;10388043;28;20029;-78
2022/03/15 17:01:38;;;;;;;7.03;5.18;;;;;;;13.35;59.92;102220.88;10401198;28;20103;-79
2022/03/15 17:06:39;;;;;;;5.60;5.10;;;;;;;13.25;59.88;102227.44;10418498;28;20036;-79
2022/03/15 17:11:40;;;;;;;10.40;6.70;;;;;;;13.23;60.16;102228.59;10416087;28;20109;-78
2022/03/15 17:16:41;;;;;;;7.68;5.97;;;;;;;13.07;61.77;102240.44;10383547;28;20053;-79
2022/03/15 17:21:42;;;;;;;13.90;8.05;;;;;;;12.84;64.48;102239.59;10399891;28;20120;-78
2022/03/15 17:26:43;;;;;;;7.70;5.97;;;;;;;12.47;68.09;102249.31;10383640;28;20041;-78
2022/03/15 17:31:46;;;;;;;9.10;6.20;;;;;;;12.20;67.98;102254.19;10409412;28;20072;-78
2022/03/15 17:36:46;;;;;;;8.00;5.85;;;;;;;12.00;66.03;102259.16;10415170;28;20123;-77
2022/03/15 17:41:56;;;;;;;5.38;4.57;;;;;;;11.75;67.21;102269.19;10431802;28;20072;-77
2022/03/15 17:47:02;;;;;;;10.85;5.82;;;;;;;11.60;67.79;102279.03;10420145;28;20042;-78
2022/03/15 17:52:03;;;;;;;6.22;4.13;;;;;;;11.44;69.13;102282.59;10421105;28;20061;-77
2022/03/15 17:57:15;;;;;;;4.50;4.10;;;;;;;11.37;67.78;102282.44;10400195;28;20397;-78
2022/03/15 18:02:20;;;;;;;8.90;3.45;;;;;;;11.28;67.76;102286.16;10417938;28;20088;-78
2022/03/15 18:07:23;;;;;;;3.75;3.35;;;;;;;11.16;69.08;102291.03;10416777;28;20482;-78
2022/03/15 18:12:26;;;;;;;7.00;3.00;;;;;;;11.16;66.83;102291.03;10415326;28;20469;-78
2022/03/15 18:17:32;;;;;;;3.92;3.40;;;;;;;11.06;68.50;102295.78;10398898;28;20033;-78
2022/03/15 18:22:33;;;;;;;3.33;3.03;;;;;;;11.04;67.67;102300.53;10415660;28;20091;-78
2022/03/15 18:27:33;;;;;;;2.75;2.55;;;;;;;10.98;68.35;102305.78;10401308;28;20542;-78
2022/03/15 18:32:36;;;;;;;4.93;3.35;;;;;;;10.88;68.41;102306.75;10417036;28;20488;-78
2022/03/15 18:37:39;;;;;;;4.43;3.53;;;;;;;10.87;67.44;102307.75;10415790;28;20053;-78
2022/03/15 18:42:40;;;;;;;4.40;3.28;;;;;;;10.78;67.02;102305.19;10416025;28;20096;-78
2022/03/15 18:47:40;;;;;;;10.10;3.42;;;;;;;10.65;66.60;102300.22;10415700;28;20087;-78
2022/03/15 18:52:41;;;;;;;4.22;3.88;;;;;;;10.55;66.42;102304.94;10417597;28;20489;-78
2022/03/15 18:57:41;;;;;;;7.28;4.65;;;;;;;10.45;66.12;102300.50;10416060;28;20033;-78
2022/03/15 19:02:44;;;;;;;5.38;4.75;;;;;;;10.38;67.32;102310.28;10415000;28;20589;-77
2022/03/15 19:07:45;;;;;;;14.45;5.00;;;;;;;10.27;68.11;102312.41;10417555;28;20037;-78
2022/03/15 19:12:46;;;;;;;5.32;4.22;;;;;;;10.21;69.33;102316.56;10422715;28;20120;-78
2022/03/15 19:17:47;;;;;;;11.38;4.30;;;;;;;10.14;67.62;102310.09;10422367;28;20087;-78
2022/03/15 19:22:50;;;;;;;7.30;4.95;;;;;;;10.04;67.48;102314.78;10422909;28;20124;-78
2022/03/15 19:27:50;;;;;;;5.18;4.30;;;;;;;9.88;67.98;102323.63;10420828;28;20036;-78
2022/03/15 19:32:51;;;;;;;11.02;6.75;;;;;;;9.73;68.02;102331.47;10426731;28;20102;-78
2022/03/15 19:37:53;;;;;;;8.25;5.50;;;;;;;9.59;67.55;102334.75;10429333;28;20057;-77
2022/03/15 19:42:53;;;;;;;8.85;5.68;;;;;;;9.50;69.02;102331.94;10428137;28;20041;-77
2022/03/15 19:47:54;;;;;;;9.93;5.88;;;;;;;9.44;69.05;102337.97;10421877;28;20037;-78
2022/03/15 19:52:54;;;;;;;11.57;6.53;;;;;;;9.34;68.93;102341.78;10390770;28;20040;-77
2022/03/15 19:57:55;;;;;;;17.20;6.35;;;;;;;9.24;68.74;102344.53;10409160;28;20145;-78
2022/03/15 20:02:57;;;;;;;5.22;4.80;;;;;;;9.15;69.80;102345.47;10425683;28;20095;-77
2022/03/15 20:07:57;;;;;;;6.80;5.88;;;;;;;9.16;70.61;102361.53;10420124;28;20462;-77
2022/03/15 20:13:00;;;;;;;10.52;5.85;;;;;;;9.12;70.49;102365.53;10422426;28;20033;-76
2022/03/15 20:18:05;;;;;;;6.35;4.00;;;;;;;9.05;71.00;102364.44;10424077;28;20037;-78
2022/03/15 20:23:07;;;;;;;7.82;5.07;;;;;;;9.01;72.04;102368.47;10419950;28;20048;-77
2022/03/15 20:28:09;;;;;;;4.82;4.32;;;;;;;8.99;72.89;102365.03;10421213;28;20100;-76
2022/03/15 20:33:09;;;;;;;8.65;5.82;;;;;;;9.02;72.69;102375.56;10419222;28;20039;-77
2022/03/15 20:38:10;;;;;;;8.50;5.90;;;;;;;9.01;73.75;102380.09;10401508;28;20404;-77
2022/03/15 20:48:29;;;;;;;6.75;6.05;;;;;;;8.96;75.47;102373.44;10418279;28;20065;-76
2022/03/15 20:53:29;;;;;;;7.85;6.40;;;;;;;8.94;76.99;102379.03;10419756;28;20445;-78
2022/03/15 20:58:32;;;;;;;8.90;6.63;;;;;;;8.90;78.81;102372.19;10401935;28;20029;-77
2022/03/15 21:03:33;;;;;;;10.88;8.32;;;;;;;8.86;78.76;102376.22;10417955;28;20477;-76
2022/03/15 21:08:38;;;;;;;11.40;7.05;;;;;;;8.84;75.75;102383.63;10400535;28;20073;-76
2022/03/15 21:13:39;;;;;;;8.35;6.53;;;;;;;8.73;74.81;102387.34;10417921;28;20033;-76
2022/03/15 21:18:40;;;;;;;8.68;6.70;;;;;;;8.66;79.12;102390.81;10416393;28;20033;-76
2022/03/15 21:23:44;;;;;;;10.25;7.10;;;;;;;8.66;79.27;102396.22;10419060;28;20041;-77
2022/03/15 21:28:44;;;;;;;9.93;7.43;;;;;;;8.64;81.10;102398.19;10416162;28;20472;-77
2022/03/15 21:33:45;;;;;;;14.80;9.25;;;;;;;8.59;82.15;102395.97;10415553;28;20124;-76
2022/03/15 21:38:46;;;;;;;9.90;8.98;;;;;;;8.56;83.21;102397.09;10416571;28;20489;-76
2022/03/15 21:43:46;;;;;;;13.65;8.88;;;;;;;8.57;82.88;102392.53;10417667;28;20045;-76
2022/03/15 21:48:50;;;;;;;14.30;7.60;;;;;;;8.58;81.50;102394.22;10415025;28;20056;-75
2022/03/15 21:53:51;;;;;;;13.63;9.23;;;;;;;8.53;80.42;102391.16;10417504;28;20033;-77
2022/03/15 21:58:53;;;;;;;10.95;8.25;;;;;;;8.50;79.77;102394.97;10417471;28;20116;-76
2022/03/15 22:03:53;;;;;;;11.35;8.75;;;;;;;8.40;79.18;102391.47;10415978;28;20095;-76
2022/03/15 22:08:54;;;;;;;13.82;7.93;;;;;;;8.30;78.88;102386.06;10415178;28;20164;-77
2022/03/15 22:13:55;;;;;;;17.25;8.95;;;;;;;8.18;80.08;102389.94;10417785;28;20037;-75
2022/03/15 22:18:56;;;;;;;12.52;8.77;;;;;;;8.15;81.35;102390.22;10419909;28;20029;-76
2022/03/15 22:23:58;;;;;;;11.15;9.57;;;;;;;8.12;82.24;102395.91;10419093;28;20048;-75
2022/03/15 22:28:58;;;;;;;13.65;8.32;;;;;;;8.02;84.51;102403.16;10414767;28;20091;-75
2022/03/15 23:16:17;;;;;;;17.90;11.93;;;;;;;7.77;87.83;102415.38;10420875;28;20469;-76
2022/03/15 23:31:56;;;;;;;25.95;15.55;;;;;;;7.65;88.08;102417.34;10423906;28;20045;-77
2022/03/15 23:36:56;;;;;;;18.90;15.32;;;;;;;7.56;88.27;102420.88;10433278;28;20033;-76
2022/03/15 23:41:57;;;;;;;27.13;18.83;;;;;;;7.52;88.33;102414.94;10436123;28;20073;-76
2022/03/15 23:46:57;;;;;;;24.95;17.15;;;;;;;7.48;88.46;102418.91;10426637;28;20112;-76
2022/03/15 23:52:00;;;;;;;27.85;19.75;;;;;;;7.42;88.29;102414.91;10427171;28;20041;-76
2022/03/15 23:57:01;;;;;;;27.38;17.90;;;;;;;7.36;87.87;102411.94;10420302;28;20033;-76
